Bertram, TX (78605)

6:20 PM CDT on May 04, 2015 (GMT -0500)
Crazy Lady Range | | Change Station
CLOSE
Current Station
Personal Weather Station
Location: Liberty Hill, TX
Elevation: 1043 ft
Nearby Weather Stations

Elev 1043 ft 30.74 °N, 97.98 °W | Updated 12 seconds ago

Overcast
Overcast
79.9 °F
Feels Like 81 °F
N
1.6
Wind Variable Wind from SE
Gusts 13.6 mph

Today
High -- | Low -- °F
--% Chance of Precip.
Yesterday
High -- | Low -- °F
Precip. -- in
6:45 AM 8:12 PM
Full, 99% visible
Pressure 29.96 in
Visibility 10.0 miles
Clouds Overcast 10000 ft
Heat Index 81 °F
Dew Point 61 °F
Humidity 53%
Rainfall 0.00 in
Snow Depth Not available.
UV 1 out of 12
Pollen 4.70 out of 12
Air Quality Not available.
Flu Activity Sporadic
METAR KBMQ 042253Z AUTO 13012G17KT 10SM OVC100 26/15 A3000 RMK AO2 SLP145 T02610150

More Conditions Fewer Conditions

Pressure 29.96 in
Visibility 10.0 miles
Clouds Overcast 10000 ft
Heat Index 81 °F
Dew Point 61 °F
Humidity 53%
Rainfall 0.00 in
Snow Depth Not available.
UV 1 out of 12
Pollen 4.70 out of 12
Air Quality Not available.
Flu Activity Sporadic
METAR KBMQ 042253Z AUTO 13012G17KT 10SM OVC100 26/15 A3000 RMK AO2 SLP145 T02610150

More Conditions Fewer Conditions

Nepal has a long way to go to dig out and rebuild from a devastating earthquake. We have teamed up with several charities and organizations to make contributing to the relief effort as easy as possible.
How you can help: Portlight Strategies | Red Cross

10-Day Weather Forecast

Almanac

Astronomy

May. 04, 2015 Rise Set
Actual Time
Civil Twilight
Nautical Twilight
Astronomical Twilight
Moon
Length of Visible Light
Length of Day
Tomorrow will be .
, % of the Moon is Illuminated

Today's Extremes

State Highs State Lows

Community

WunderPhotos

Upload Photos

1,818,726 photos uploaded!

WunderBlogs® & News

Nearby

Air Quality

  Air Quality AQ Index Pollutant
Not available.

Snow Depth

Station Depth Elevation

Earthquake Activity

City Distance Mag. Time & Date
Minimum magnitude displayed is 2.5.

Coastal Water Temperatures

Place Temperature

Stations

Nearby Weather Stations

Station Location Temp. Windchill Dew Point Humidity Wind Precip. Elev Updated Type